Terminal Aerodrome Forecast
Issued by NWS

Home | Current Version | Previous Version | Text Only | Print | Product List | Glossary On
Versions: 1 2 3 4 5 6 7 8 9 10 11 12 13 14 15 16 17 18 19 20 21
000
FTUS43 KAPX 271120
TAFMBL
TAF
KMBL 271120Z 2712/2812 14004KT 2SM BR SCT005
     FM271300 15004KT 4SM BR SCT200
     FM271400 16005KT P6SM SCT200
     FM271900 21007KT P6SM VCTS BKN090CB
     FM272300 18005KT P6SM -SHRA OVC050
     FM280600 16005KT 4SM SHRA BR OVC025
      AMD LTD TO CLD VIS AND WIND=

USA.gov is the U.S. government's official web portal to all federal, state and local government web resources and services.